createdAt,value
2018-09-26T00:00:18.266Z,4.6
2018-09-26T00:01:08.877Z,4.6
2018-09-26T00:01:58.381Z,4.6
2018-09-26T00:02:48.157Z,4.5
2018-09-26T00:03:38.512Z,4.5
2018-09-26T00:04:28.277Z,4.4
2018-09-26T00:05:18.345Z,4.4
2018-09-26T00:06:08.975Z,4.4
2018-09-26T00:06:58.735Z,4.3
2018-09-26T00:07:49.339Z,4.3
2018-09-26T00:08:38.596Z,4.3
2018-09-26T00:09:29.215Z,4.3
2018-09-26T00:10:18.957Z,4.3
2018-09-26T00:11:08.768Z,4.3
2018-09-26T00:11:59.459Z,4.3
2018-09-26T00:12:49.170Z,4.1
2018-09-26T00:13:38.950Z,4.1
2018-09-26T00:14:29.559Z,4.1
2018-09-26T00:15:19.942Z,4.1
2018-09-26T00:16:09.437Z,4.1
2018-09-26T00:16:59.173Z,4.1
2018-09-26T00:17:49.537Z,4
2018-09-26T00:18:39.399Z,3.9
2018-09-26T00:19:29.941Z,3.9
2018-09-26T00:20:19.437Z,3.9
2018-09-26T00:21:10.064Z,3.9
2018-09-26T00:21:59.549Z,3.8
2018-09-26T00:22:49.896Z,3.7
2018-09-26T00:23:39.912Z,3.6
2018-09-26T00:24:30.042Z,3.5
2018-09-26T00:25:20.669Z,3.4
2018-09-26T00:26:09.935Z,3.4
2018-09-26T00:27:00.749Z,3.4
2018-09-26T00:27:50.256Z,3.4
2018-09-26T00:28:40.921Z,3.3
2018-09-26T00:29:30.661Z,3.4
2018-09-26T00:30:20.758Z,3.3
2018-09-26T00:31:10.541Z,3.3
2018-09-26T00:32:00.868Z,3.2
2018-09-26T00:32:50.366Z,3.2
2018-09-26T00:33:40.999Z,3.1
2018-09-26T00:34:31.068Z,3.1
2018-09-26T00:35:20.839Z,3.1
2018-09-26T00:36:11.716Z,3
2018-09-26T00:37:01.489Z,3
2018-09-26T00:55:24.457Z,2.6
2018-09-26T00:56:14.722Z,2.6
2018-09-26T00:57:04.562Z,2.7
2018-09-26T00:57:54.644Z,2.6
2018-09-26T00:58:44.105Z,2.7
2018-09-26T00:59:34.469Z,2.6
2018-09-26T01:00:25.754Z,2.6
2018-09-26T01:01:15.085Z,2.6
2018-09-26T01:02:04.639Z,2.6
2018-09-26T01:02:55.010Z,2.7
2018-09-26T01:03:45.329Z,2.7
2018-09-26T01:04:35.358Z,2.6
2018-09-26T01:05:25.764Z,2.6
2018-09-26T01:06:15.209Z,2.6
2018-09-26T01:07:04.990Z,2.6
2018-09-26T01:07:55.624Z,2.6
2018-09-26T01:08:45.409Z,2.6
2018-09-26T01:09:35.747Z,2.6
2018-09-26T01:10:25.776Z,2.6
2018-09-26T01:11:15.639Z,2.6
2018-09-26T01:12:05.451Z,2.6
2018-09-26T01:12:55.761Z,2.6
2018-09-26T01:13:46.041Z,2.7
2018-09-26T01:14:36.102Z,2.7
2018-09-26T01:15:26.171Z,2.7
2018-09-26T01:16:16.619Z,2.8
2018-09-26T01:17:06.301Z,2.8
2018-09-26T01:17:55.802Z,2.7
2018-09-26T01:18:46.159Z,2.7
2018-09-26T01:19:36.507Z,2.7
2018-09-26T01:20:26.268Z,2.6
2018-09-26T01:21:15.713Z,2.7
2018-09-26T01:22:06.681Z,2.7
2018-09-26T01:22:56.721Z,2.6
2018-09-26T01:23:46.780Z,2.7
2018-09-26T01:24:36.845Z,2.7
2018-09-26T01:25:26.954Z,2.7
2018-09-26T01:26:17.033Z,2.8
2018-09-26T01:27:07.018Z,2.7
2018-09-26T01:27:57.100Z,2.8
2018-09-26T01:28:47.152Z,2.8
2018-09-26T01:29:37.222Z,2.9
2018-09-26T01:30:26.745Z,2.9
2018-09-26T01:31:17.619Z,2.9
2018-09-26T01:32:07.389Z,2.9
2018-09-26T01:32:56.905Z,2.9
2018-09-26T01:33:47.242Z,2.9
2018-09-26T01:34:37.025Z,2.9
2018-09-26T01:35:27.370Z,2.9
2018-09-26T01:36:17.760Z,2.9
2018-09-26T01:37:07.826Z,2.9
2018-09-26T01:37:57.562Z,2.8
2018-09-26T01:38:47.635Z,2.9
2018-09-26T01:39:37.697Z,2.8
2018-09-26T01:40:27.471Z,2.8
2018-09-26T01:41:17.669Z,2.8
2018-09-26T01:42:08.117Z,2.8
2018-09-26T01:42:58.235Z,2.9
2018-09-26T01:43:48.270Z,2.9
2018-09-26T01:44:37.787Z,2.9
2018-09-26T01:45:27.827Z,2.9
2018-09-26T01:46:17.884Z,2.9
2018-09-26T01:47:08.185Z,2.9
2018-09-26T01:47:57.779Z,2.9
2018-09-26T01:48:48.359Z,2.8
2018-09-26T01:49:38.424Z,2.8
2018-09-26T01:50:28.474Z,2.8
2018-09-26T01:51:18.549Z,2.8
2018-09-26T01:52:08.419Z,2.8
2018-09-26T01:52:58.945Z,2.8
2018-09-26T01:53:48.755Z,2.8
2018-09-26T01:54:38.783Z,2.8
2018-09-26T01:55:29.141Z,2.8
2018-09-26T01:56:18.641Z,2.8
2018-09-26T01:57:08.751Z,2.7
2018-09-26T01:57:59.387Z,2.7
2018-09-26T01:58:49.089Z,2.7
2018-09-26T01:59:39.438Z,2.6
2018-09-26T02:00:29.231Z,2.7
2018-09-26T02:01:19.577Z,2.8
2018-09-26T02:02:09.346Z,2.8
2018-09-26T02:02:59.686Z,2.8
2018-09-26T02:03:49.486Z,2.8
2018-09-26T02:04:39.253Z,2.8
2018-09-26T02:05:29.905Z,2.8
2018-09-26T02:06:19.658Z,2.9
2018-09-26T02:07:09.978Z,2.9
2018-09-26T02:08:00.066Z,2.9
2018-09-26T02:08:50.133Z,2.9
2018-09-26T02:09:39.888Z,2.8
2018-09-26T02:10:29.978Z,2.8
2018-09-26T02:11:19.178Z,2.8
2018-09-26T02:12:10.377Z,2.7
2018-09-26T02:12:59.858Z,2.7
2018-09-26T02:13:50.720Z,2.8
2018-09-26T02:14:40.550Z,2.8
2018-09-26T02:15:30.638Z,2.8
2018-09-26T02:16:20.640Z,2.7
2018-09-26T02:17:10.477Z,2.7
2018-09-26T02:18:00.572Z,2.6
2018-09-26T02:18:50.627Z,2.6
2018-09-26T02:19:40.655Z,2.6
2018-09-26T02:20:30.442Z,2.6
2018-09-26T02:21:20.770Z,2.5
2018-09-26T02:22:11.112Z,2.5
2018-09-26T02:23:00.632Z,2.6
2018-09-26T02:23:51.534Z,2.6
2018-09-26T02:24:41.314Z,2.8
2018-09-26T02:25:31.059Z,2.9
2018-09-26T02:26:21.415Z,3
2018-09-26T02:27:11.494Z,3.1
2018-09-26T02:28:01.561Z,3.1
2018-09-26T02:28:51.942Z,3.2
2018-09-26T02:29:41.659Z,3.1
2018-09-26T02:30:31.179Z,3.1
2018-09-26T02:31:21.248Z,3.1
2018-09-26T02:32:11.002Z,3
2018-09-26T02:33:01.989Z,3
2018-09-26T02:33:51.732Z,3
2018-09-26T02:34:41.773Z,3.1
2018-09-26T02:35:32.100Z,3.1
2018-09-26T02:36:21.851Z,3.1
2018-09-26T02:37:12.196Z,3.1
2018-09-26T02:38:02.003Z,3.2
2018-09-26T02:38:52.306Z,3.4
2018-09-26T02:39:42.442Z,3.6
2018-09-26T02:40:32.177Z,3.6
2018-09-26T02:41:22.291Z,3.6
2018-09-26T02:42:11.996Z,3.8
2018-09-26T02:43:01.789Z,3.9
2018-09-26T02:43:52.758Z,3.8
2018-09-26T02:44:43.028Z,3.8
2018-09-26T02:45:32.863Z,3.8
2018-09-26T02:46:22.901Z,3.8
2018-09-26T02:47:12.386Z,3.9
2018-09-26T02:48:03.006Z,3.8
2018-09-26T02:48:53.121Z,3.8
2018-09-26T02:49:42.915Z,3.8
2018-09-26T02:50:33.194Z,3.8
2018-09-26T02:51:23.262Z,3.9
2018-09-26T02:52:13.026Z,3.9
2018-09-26T02:53:03.388Z,4
2018-09-26T02:53:53.415Z,4
2018-09-26T02:54:43.223Z,4.1
2018-09-26T02:55:33.125Z,4.1
2018-09-26T02:56:23.635Z,4
2018-09-26T02:57:13.703Z,4
2018-09-26T02:58:03.283Z,4.1
2018-09-26T02:58:52.978Z,4.1
2018-09-26T02:59:43.916Z,4
2018-09-26T03:00:33.695Z,3.9
2018-09-26T03:01:23.149Z,4
2018-09-26T03:02:14.064Z,3.9
2018-09-26T03:03:03.564Z,3.9
2018-09-26T03:03:54.843Z,3.9
2018-09-26T03:04:44.242Z,4
2018-09-26T03:05:34.329Z,4
2018-09-26T03:06:23.819Z,4
2018-09-26T03:07:13.862Z,4
2018-09-26T03:08:03.942Z,4
2018-09-26T03:08:54.301Z,3.9
2018-09-26T03:09:44.595Z,4
2018-09-26T03:10:34.178Z,4.1
2018-09-26T03:11:24.459Z,4.2
2018-09-26T03:12:14.237Z,4.1
2018-09-26T03:13:04.586Z,4.1
2018-09-26T03:13:54.922Z,4.1
2018-09-26T03:14:45.264Z,4.1
2018-09-26T03:15:35.087Z,4.1
2018-09-26T03:16:24.832Z,4
2018-09-26T03:17:14.325Z,4
2018-09-26T03:18:04.654Z,3.9
2018-09-26T03:18:55.279Z,3.9
2018-09-26T03:19:45.129Z,4
2018-09-26T03:20:35.126Z,4.1
2018-09-26T03:21:25.178Z,4
2018-09-26T03:22:15.536Z,3.9
2018-09-26T03:23:05.294Z,3.9
2018-09-26T03:23:55.381Z,3.9
2018-09-26T03:24:45.851Z,3.9
2018-09-26T03:25:36.360Z,3.9
2018-09-26T03:26:25.566Z,3.9
2018-09-26T03:27:15.913Z,4.1
2018-09-26T03:28:05.959Z,4.1
2018-09-26T03:28:55.471Z,4.1
2018-09-26T03:29:46.117Z,4.1
2018-09-26T03:30:35.615Z,4
2018-09-26T03:31:25.657Z,4
2018-09-26T03:32:15.765Z,4
2018-09-26T03:33:05.785Z,3.9
2018-09-26T03:33:55.848Z,3.9
2018-09-26T03:34:45.890Z,3.9
2018-09-26T03:35:36.758Z,3.9
2018-09-26T03:36:26.843Z,3.9
2018-09-26T03:37:16.658Z,3.8
2018-09-26T03:38:06.732Z,3.8
2018-09-26T03:38:56.485Z,3.8
2018-09-26T03:39:46.263Z,3.8
2018-09-26T03:40:36.890Z,3.6
2018-09-26T03:41:26.939Z,3.4
2018-09-26T03:42:16.472Z,3.4
2018-09-26T03:43:06.507Z,3.4
2018-09-26T03:43:57.151Z,3.4
2018-09-26T03:44:46.618Z,3.3
2018-09-26T03:45:36.971Z,3.3
2018-09-26T03:46:27.344Z,3.2
2018-09-26T03:47:17.404Z,3.1
2018-09-26T03:48:07.449Z,3.1
2018-09-26T03:48:57.477Z,3
2018-09-26T03:49:47.284Z,2.9
2018-09-26T03:50:37.639Z,2.9
2018-09-26T03:51:27.934Z,2.8
2018-09-26T03:52:17.456Z,2.8
2018-09-26T03:53:07.531Z,2.7
2018-09-26T03:53:57.577Z,2.8
2018-09-26T03:54:47.638Z,2.8
2018-09-26T03:55:37.967Z,2.8
2018-09-26T03:56:28.127Z,2.9
2018-09-26T03:57:18.124Z,2.9
2018-09-26T03:58:08.179Z,2.9
2018-09-26T03:58:57.960Z,3
2018-09-26T03:59:47.988Z,2.9
2018-09-26T04:00:37.497Z,2.9
2018-09-26T04:01:28.380Z,2.8
2018-09-26T04:02:18.523Z,2.8
2018-09-26T04:03:08.571Z,2.7
2018-09-26T04:03:58.641Z,2.8
2018-09-26T04:04:48.634Z,2.8
2018-09-26T04:05:38.461Z,2.7
2018-09-26T04:06:28.784Z,2.7
2018-09-26T04:07:18.276Z,2.6
2018-09-26T04:08:08.333Z,2.6
2018-09-26T04:08:59.040Z,2.4
2018-09-26T04:09:49.036Z,2.4
2018-09-26T04:10:38.808Z,2.4
2018-09-26T04:11:29.160Z,2.4
2018-09-26T04:12:18.941Z,2.3
2018-09-26T04:13:08.947Z,2.2
2018-09-26T04:13:59.323Z,2.2
2018-09-26T04:14:49.423Z,2.2
2018-09-26T04:15:40.062Z,2.2
2018-09-26T04:16:29.245Z,2.2
2018-09-26T04:17:19.028Z,2.3
2018-09-26T04:18:09.641Z,2.3
2018-09-26T04:18:59.417Z,2.2
2018-09-26T04:19:49.775Z,2.2
2018-09-26T04:20:39.852Z,2.2
2018-09-26T04:21:29.325Z,2.1
2018-09-26T04:22:19.961Z,2.1
2018-09-26T04:23:09.717Z,2.1
2018-09-26T04:24:00.117Z,2
2018-09-26T04:24:49.856Z,2
2018-09-26T04:25:40.181Z,2
2018-09-26T04:26:31.447Z,2
2018-09-26T04:27:20.809Z,2
2018-09-26T04:28:09.857Z,1.9
2018-09-26T04:29:00.182Z,1.9
2018-09-26T04:29:50.538Z,1.9
2018-09-26T04:30:40.502Z,1.9
2018-09-26T04:31:30.590Z,1.9
2018-09-26T04:32:20.385Z,1.9
2018-09-26T04:33:12.119Z,2
2018-09-26T04:34:01.313Z,2
2018-09-26T04:34:50.884Z,1.9
2018-09-26T04:35:40.924Z,1.9
2018-09-26T04:36:31.262Z,1.9
2018-09-26T04:37:21.068Z,1.9
2018-09-26T04:38:10.558Z,1.8
2018-09-26T04:39:00.978Z,1.8
2018-09-26T04:39:51.208Z,1.9
2018-09-26T04:40:40.724Z,2
2018-09-26T04:41:31.621Z,2.1
2018-09-26T04:42:21.411Z,2.1
2018-09-26T04:43:11.821Z,2.1
2018-09-26T04:44:00.986Z,2.1
2018-09-26T04:44:51.341Z,2.1
2018-09-26T04:45:41.657Z,2.1
2018-09-26T04:46:31.766Z,2
2018-09-26T04:47:21.506Z,2.1
2018-09-26T04:48:11.828Z,2.1
2018-09-26T04:49:01.655Z,2.2
2018-09-26T04:49:51.968Z,2.3
2018-09-26T04:50:42.266Z,2.2
2018-09-26T04:51:32.075Z,2.1
2018-09-26T04:52:21.591Z,2.1
2018-09-26T04:53:12.443Z,2.1
2018-09-26T04:54:02.336Z,2.3
2018-09-26T04:54:52.055Z,2.2
2018-09-26T04:55:42.381Z,2.2
2018-09-26T04:56:32.192Z,2.3
2018-09-26T04:57:22.507Z,2.4
2018-09-26T04:58:12.630Z,2.5
2018-09-26T04:59:02.408Z,2.6
2018-09-26T04:59:52.130Z,2.4
2018-09-26T05:00:42.787Z,2.4
2018-09-26T05:01:32.815Z,2.6
2018-09-26T05:02:22.595Z,2.6
2018-09-26T05:03:12.920Z,2.7
2018-09-26T05:04:02.715Z,2.7
2018-09-26T05:04:52.555Z,2.7
2018-09-26T05:05:42.884Z,2.8
2018-09-26T05:06:32.612Z,2.9
2018-09-26T05:07:22.962Z,3.1
2018-09-26T05:24:15.139Z,4.3
2018-09-26T05:25:05.069Z,4.4
2018-09-26T05:25:54.889Z,4.4
2018-09-26T05:26:44.914Z,4.4
2018-09-26T05:27:34.671Z,4.4
2018-09-26T05:28:25.046Z,4.4
2018-09-26T05:29:15.408Z,4.4
2018-09-26T05:30:04.568Z,4.5
2018-09-26T05:30:54.923Z,4.6
2018-09-26T05:31:45.265Z,4.8
2018-09-26T05:32:35.338Z,4.8
2018-09-26T05:33:25.669Z,4.9
2018-09-26T05:34:15.181Z,4.9
2018-09-26T05:35:05.788Z,4.9
2018-09-26T05:35:55.541Z,4.8
2018-09-26T05:36:45.960Z,4.7
2018-09-26T05:37:35.984Z,4.8
2018-09-26T05:38:26.063Z,4.8
2018-09-26T05:39:15.790Z,4.9
2018-09-26T05:40:05.886Z,5.1
2018-09-26T05:40:55.623Z,4.9
2018-09-26T05:41:46.405Z,4.9
2018-09-26T05:42:36.326Z,4.9
2018-09-26T05:43:26.398Z,4.9
2018-09-26T05:44:15.626Z,5.1
2018-09-26T05:45:06.285Z,5.3
2018-09-26T05:45:56.648Z,5.4
2018-09-26T05:46:46.722Z,5.4
2018-09-26T05:47:36.718Z,5.5
2018-09-26T05:48:26.227Z,5.4
2018-09-26T05:49:16.830Z,5.5
2018-09-26T05:50:06.744Z,5.6
2018-09-26T05:50:57.025Z,5.7
2018-09-26T05:51:46.450Z,6
2018-09-26T05:52:37.074Z,6.4
2018-09-26T05:53:27.176Z,6.6
2018-09-26T05:54:16.917Z,6.5
2018-09-26T05:55:07.002Z,6.4
2018-09-26T05:55:57.255Z,6.5
2018-09-26T05:56:47.360Z,6.6
2018-09-26T05:57:37.430Z,6.9
2018-09-26T05:58:26.959Z,6.6
2018-09-26T05:59:17.871Z,6.6
2018-09-26T06:00:07.377Z,6.4
2018-09-26T06:00:58.412Z,6.6
2018-09-26T06:01:48.146Z,6.9
2018-09-26T06:02:37.850Z,6.9
2018-09-26T06:03:27.289Z,6.8
2018-09-26T06:04:17.614Z,6.8
2018-09-26T06:05:07.763Z,6.8
2018-09-26T06:05:58.024Z,6.9
2018-09-26T06:06:47.596Z,6.9
2018-09-26T06:07:37.613Z,7.1
2018-09-26T06:08:27.466Z,7.3
2018-09-26T06:09:18.296Z,7.4
2018-09-26T06:10:08.073Z,7.1
2018-09-26T06:10:57.821Z,7
2018-09-26T06:11:48.479Z,7
2018-09-26T06:12:38.572Z,7.1
2018-09-26T06:13:28.432Z,7.3
2018-09-26T06:14:18.828Z,7.5
2018-09-26T06:15:08.831Z,7.6
2018-09-26T06:15:58.946Z,7.5
2018-09-26T06:16:49.149Z,7.9
2018-09-26T06:17:38.693Z,8.1
2018-09-26T06:18:28.977Z,8.1
2018-09-26T06:19:18.729Z,8.4
2018-09-26T06:20:08.829Z,8.6
2018-09-26T06:20:58.281Z,8.7
2018-09-26T06:21:48.952Z,8.6
2018-09-26T06:22:39.019Z,8.4
2018-09-26T06:23:29.038Z,8.3
2018-09-26T06:24:19.425Z,8.4
2018-09-26T06:25:09.181Z,8.8
2018-09-26T06:25:59.018Z,8.9
2018-09-26T06:26:48.776Z,9.2
2018-09-26T06:27:39.640Z,9.3
2018-09-26T06:28:28.855Z,9.5
2018-09-26T06:29:19.750Z,9.4
2018-09-26T06:30:09.650Z,9.5
2018-09-26T06:30:59.895Z,9.4
2018-09-26T06:31:49.672Z,9.3
2018-09-26T06:32:39.989Z,9.5
2018-09-26T06:33:30.054Z,9.4
2018-09-26T06:34:20.161Z,9.7
2018-09-26T06:35:10.087Z,9.9
2018-09-26T06:36:00.264Z,9.9
2018-09-26T06:36:50.038Z,9.6
2018-09-26T06:37:40.122Z,9.7
2018-09-26T06:38:30.159Z,9.8
2018-09-26T06:39:20.530Z,9.9
2018-09-26T06:40:10.276Z,9.9
2018-09-26T06:41:00.047Z,9.8
2018-09-26T06:41:50.459Z,9.9
2018-09-26T06:42:40.473Z,10
2018-09-26T06:43:30.571Z,10.3
2018-09-26T06:44:20.859Z,10.3
2018-09-26T06:45:10.911Z,10.1
2018-09-26T06:46:00.694Z,9.6
2018-09-26T06:46:51.046Z,9.6
2018-09-26T06:47:41.212Z,9.8
2018-09-26T06:48:30.623Z,10.2
2018-09-26T06:49:21.203Z,10.5
2018-09-26T06:50:11.033Z,10.5
2018-09-26T06:51:01.084Z,10.5
2018-09-26T06:51:50.858Z,10.6
2018-09-26T06:52:41.482Z,10.9
2018-09-26T06:53:31.550Z,11
2018-09-26T06:54:21.326Z,11.1
2018-09-26T06:55:11.635Z,11.1
2018-09-26T06:56:01.431Z,11.4
2018-09-26T06:56:51.555Z,11.5
2018-09-26T06:57:41.613Z,11.4
2018-09-26T06:58:31.598Z,11.1
2018-09-26T06:59:21.970Z,11.3
2018-09-26T07:00:12.218Z,11.4
2018-09-26T07:01:02.068Z,11.7
2018-09-26T07:01:52.154Z,11.8
2018-09-26T07:02:41.993Z,11.8
2018-09-26T07:03:32.275Z,11.8
2018-09-26T07:04:22.575Z,11.6
2018-09-26T07:05:12.160Z,11.6
2018-09-26T07:06:02.175Z,11.6
2018-09-26T07:06:52.565Z,11.4
2018-09-26T07:07:42.278Z,11.5
2018-09-26T07:08:32.073Z,11.5
2018-09-26T07:09:22.407Z,11.4
2018-09-26T07:10:12.735Z,11.4
2018-09-26T07:11:02.825Z,11.4
2018-09-26T07:11:52.307Z,11
2018-09-26T07:12:43.200Z,11.3
2018-09-26T07:13:32.775Z,11.5
2018-09-26T07:14:22.507Z,11.7
2018-09-26T07:15:13.163Z,11.8
2018-09-26T07:16:03.176Z,11.7
2018-09-26T07:16:53.008Z,11.8
2018-09-26T07:17:43.879Z,11.9
2018-09-26T07:18:33.365Z,11.9
2018-09-26T07:19:22.847Z,12
2018-09-26T07:20:13.495Z,11.8
2018-09-26T07:21:03.605Z,11.8
2018-09-26T07:21:53.062Z,11.9
2018-09-26T07:22:43.997Z,11.8
2018-09-26T07:23:33.514Z,11.8
2018-09-26T07:24:23.219Z,11.8
2018-09-26T07:25:13.846Z,12
2018-09-26T07:26:03.663Z,12.1
2018-09-26T07:26:53.709Z,12.2
2018-09-26T07:27:44.049Z,12.3
2018-09-26T07:28:34.164Z,12.6
2018-09-26T07:29:23.867Z,12.9
2018-09-26T07:30:14.196Z,12.9
2018-09-26T07:31:04.272Z,12.8
2018-09-26T07:31:54.086Z,12.9
2018-09-26T07:32:44.197Z,12.9
2018-09-26T07:33:34.448Z,12.9
2018-09-26T07:34:24.503Z,12.6
2018-09-26T07:35:14.586Z,12.3
2018-09-26T07:36:04.094Z,12.5
2018-09-26T07:36:54.706Z,12.5
2018-09-26T07:37:44.491Z,12.6
2018-09-26T07:38:34.204Z,12.5
2018-09-26T07:39:24.623Z,12.3
2018-09-26T07:40:15.017Z,12.3
2018-09-26T07:41:04.446Z,12.4
2018-09-26T07:41:55.103Z,12.6
2018-09-26T07:42:44.014Z,13
2018-09-26T07:43:34.938Z,13.3
2018-09-26T07:44:24.810Z,13.3
2018-09-26T07:45:14.625Z,13.2
2018-09-26T07:46:04.281Z,13.1
2018-09-26T07:46:54.939Z,13.3
2018-09-26T07:47:45.229Z,13.4
2018-09-26T07:48:34.872Z,13.5
2018-09-26T07:49:25.400Z,13.4
2018-09-26T07:50:14.856Z,13.6
2018-09-26T07:51:05.333Z,13.6
2018-09-26T07:51:55.075Z,13.2
2018-09-26T07:52:44.819Z,13.1
2018-09-26T07:53:35.183Z,12.9
2018-09-26T07:54:25.328Z,12.9
2018-09-26T07:55:15.629Z,13.3
2018-09-26T07:56:05.265Z,13
2018-09-26T07:56:55.352Z,13
2018-09-26T07:57:46.288Z,12.7
2018-09-26T07:58:35.553Z,12.3
2018-09-26T07:59:26.143Z,12.6
2018-09-26T08:00:15.663Z,12.8
2018-09-26T08:01:06.255Z,13.3
2018-09-26T08:01:56.015Z,13.5
2018-09-26T08:02:46.123Z,13.4
2018-09-26T08:03:36.394Z,13.4
2018-09-26T08:04:27.000Z,13.7
2018-09-26T08:05:16.502Z,13.5
2018-09-26T08:06:07.305Z,13.4
2018-09-26T08:06:56.080Z,13
2018-09-26T08:07:46.239Z,13
2018-09-26T08:08:36.032Z,12.9
2018-09-26T08:09:26.080Z,12.6
2018-09-26T08:10:16.407Z,12.8
2018-09-26T08:11:06.775Z,12.8
2018-09-26T08:11:57.463Z,13
2018-09-26T08:12:47.080Z,12.9
2018-09-26T08:13:37.404Z,13.1
2018-09-26T08:14:27.471Z,13.3
2018-09-26T08:15:16.757Z,12.7
2018-09-26T08:16:06.762Z,12.7
2018-09-26T08:16:57.659Z,12.4
2018-09-26T08:17:47.711Z,13.3
2018-09-26T08:18:38.161Z,13.5
2018-09-26T08:19:27.634Z,13.8
2018-09-26T08:20:17.916Z,13.9
2018-09-26T08:21:07.718Z,14
2018-09-26T08:21:57.804Z,14.1
2018-09-26T08:22:48.122Z,14.1
2018-09-26T08:23:38.039Z,14.1
2018-09-26T08:24:27.958Z,14
2018-09-26T08:25:17.687Z,14.4
2018-09-26T08:26:07.798Z,14.8
2018-09-26T08:26:58.396Z,15
2018-09-26T08:27:48.195Z,14.8
2018-09-26T08:28:37.949Z,14
2018-09-26T08:29:28.350Z,14.3
2018-09-26T08:30:18.419Z,14.6
2018-09-26T08:31:08.200Z,15.3
2018-09-26T08:31:58.493Z,15.8
2018-09-26T08:32:48.559Z,16
2018-09-26T08:33:38.631Z,15.5
2018-09-26T08:34:28.411Z,15.8
2018-09-26T08:35:19.026Z,15.8
2018-09-26T08:36:09.138Z,15.5
2018-09-26T08:36:59.112Z,15
2018-09-26T08:37:48.707Z,14.6
2018-09-26T08:38:38.990Z,14.3
2018-09-26T08:39:29.353Z,14.2
2018-09-26T08:40:19.412Z,13.8
2018-09-26T08:41:10.004Z,13.5
2018-09-26T08:41:58.970Z,13.3
2018-09-26T08:42:49.327Z,13.4
2018-09-26T08:43:39.342Z,13.3
2018-09-26T08:44:29.464Z,13.3
2018-09-26T08:45:19.751Z,13
2018-09-26T08:46:09.850Z,12.9
2018-09-26T08:46:59.852Z,12.8
2018-09-26T08:47:49.387Z,12.8
2018-09-26T08:48:40.012Z,12.7
2018-09-26T08:49:30.049Z,12.6
2018-09-26T08:50:19.926Z,12.9
2018-09-26T08:51:10.240Z,13.2
2018-09-26T08:52:00.242Z,13.6
2018-09-26T08:52:50.076Z,13.4
2018-09-26T08:53:40.649Z,13.2
2018-09-26T08:54:30.484Z,13
2018-09-26T08:55:20.460Z,13
2018-09-26T08:56:10.328Z,13
2018-09-26T08:57:00.348Z,13
2018-09-26T08:57:50.104Z,12.9
2018-09-26T08:58:40.426Z,13
2018-09-26T08:59:30.826Z,12.8
2018-09-26T09:00:20.409Z,12.4
2018-09-26T09:01:10.064Z,12.2
2018-09-26T09:02:00.689Z,12.2
2018-09-26T09:02:50.771Z,12.4
2018-09-26T09:03:41.091Z,12.6
2018-09-26T09:04:31.138Z,13.1
2018-09-26T09:05:21.465Z,13.5
2018-09-26T09:06:11.658Z,13.7
2018-09-26T09:07:01.078Z,13.4
2018-09-26T09:07:51.410Z,13.6
2018-09-26T09:08:41.176Z,13.9
2018-09-26T09:09:31.617Z,14.2
2018-09-26T09:10:21.578Z,14.4
2018-09-26T09:11:11.400Z,13.8
2018-09-26T09:12:01.157Z,13.8
2018-09-26T09:12:51.506Z,14
2018-09-26T09:13:41.816Z,14.3
2018-09-26T09:14:33.064Z,14.5
2018-09-26T09:15:21.985Z,14.5
2018-09-26T09:16:11.755Z,14.2
2018-09-26T09:17:01.335Z,14.1
2018-09-26T09:17:51.812Z,14.2
2018-09-26T09:18:41.728Z,14.3
2018-09-26T09:19:32.100Z,14.3
2018-09-26T09:20:22.902Z,14.2
2018-09-26T09:21:12.092Z,14.3
2018-09-26T09:22:02.139Z,14.1
2018-09-26T09:38:49.894Z,13.9
2018-09-26T09:39:39.631Z,14.3
2018-09-26T09:40:29.636Z,14.5
2018-09-26T09:41:19.971Z,14.5
2018-09-26T09:42:09.391Z,14.9
2018-09-26T09:43:00.039Z,15
2018-09-26T09:43:50.279Z,15.4
2018-09-26T09:44:40.267Z,15.3
2018-09-26T09:45:29.981Z,15.4
2018-09-26T09:46:20.064Z,15.5
2018-09-26T09:47:09.624Z,15.1
2018-09-26T09:48:00.740Z,15
2018-09-26T09:48:50.494Z,15.3
2018-09-26T09:49:40.278Z,15.1
2018-09-26T09:50:30.645Z,15.3
2018-09-26T09:51:20.689Z,15.4
2018-09-26T09:52:10.750Z,15.3
2018-09-26T09:53:00.531Z,15.2
2018-09-26T09:53:50.603Z,15.3
2018-09-26T09:54:40.362Z,14.5
2018-09-26T09:55:30.721Z,14.7
2018-09-26T09:56:21.213Z,14.1
2018-09-26T09:57:10.830Z,14.9
2018-09-26T09:58:00.913Z,14.9
2018-09-26T09:58:51.223Z,15.1
2018-09-26T09:59:41.015Z,15.1
2018-09-26T10:00:30.533Z,15.3
2018-09-26T10:01:21.501Z,15.3
2018-09-26T10:02:11.726Z,15.3
2018-09-26T10:03:01.585Z,15.4
2018-09-26T10:03:51.957Z,15.4
2018-09-26T10:04:41.652Z,14.9
2018-09-26T10:05:31.469Z,14.7
2018-09-26T10:06:21.542Z,14.6
2018-09-26T10:07:11.857Z,14.6
2018-09-26T10:08:01.639Z,14.3
2018-09-26T10:08:51.390Z,14.5
2018-09-26T10:09:41.776Z,14.8
2018-09-26T10:10:31.808Z,15.1
2018-09-26T10:11:22.175Z,14.9
2018-09-26T10:12:12.230Z,15.1
2018-09-26T10:13:02.300Z,15.1
2018-09-26T10:13:51.789Z,15
2018-09-26T10:14:42.137Z,14.4
2018-09-26T10:15:32.854Z,15.3
2018-09-26T10:16:22.522Z,15.5
2018-09-26T10:17:12.597Z,16
2018-09-26T10:18:02.377Z,16.4
2018-09-26T10:18:52.199Z,16.6
2018-09-26T10:19:42.489Z,15.8
2018-09-26T10:20:32.584Z,15.6
2018-09-26T10:21:22.681Z,15.3
2018-09-26T10:22:13.006Z,15.9
2018-09-26T10:23:02.471Z,16.3
2018-09-26T10:23:53.111Z,16.3
2018-09-26T10:24:43.169Z,16.1
2018-09-26T10:25:33.216Z,16
2018-09-26T10:26:24.018Z,15.3
2018-09-26T10:27:13.334Z,15.1
2018-09-26T10:28:03.388Z,14.9
2018-09-26T10:28:53.470Z,14.8
2018-09-26T10:29:43.576Z,14.5
2018-09-26T10:30:33.078Z,14.2
2018-09-26T10:31:23.651Z,14
2018-09-26T10:32:13.967Z,13.9
2018-09-26T10:33:03.783Z,14.1
2018-09-26T10:33:53.829Z,14.3
2018-09-26T10:34:43.776Z,14.7
2018-09-26T10:35:33.960Z,14.9
2018-09-26T10:36:24.058Z,14.6
2018-09-26T10:37:14.154Z,14.6
2018-09-26T10:38:04.158Z,14.9
2018-09-26T10:38:54.433Z,15.3
2018-09-26T10:39:43.988Z,14.8
2018-09-26T10:40:34.055Z,15
2018-09-26T10:41:24.151Z,14.9
2018-09-26T10:42:14.453Z,15.5
2018-09-26T10:43:03.934Z,15.4
2018-09-26T10:43:54.593Z,15.4
2018-09-26T10:44:44.631Z,15.4
2018-09-26T10:45:34.683Z,15.7
2018-09-26T10:46:24.801Z,15.6
2018-09-26T10:47:14.237Z,15.9
2018-09-26T10:48:04.863Z,15.5
2018-09-26T10:48:55.216Z,15.2
2018-09-26T10:49:44.968Z,15
2018-09-26T10:50:35.034Z,14.7
2018-09-26T10:51:25.102Z,14.8
2018-09-26T10:52:15.165Z,14.9
2018-09-26T10:53:04.527Z,15.1
2018-09-26T10:53:55.570Z,15.3
2018-09-26T10:54:45.355Z,15.6
2018-09-26T10:55:35.665Z,15.8
2018-09-26T10:56:25.737Z,15.8
2018-09-26T10:57:15.263Z,15.9
2018-09-26T10:58:05.575Z,16.1
2018-09-26T10:58:55.360Z,16
2018-09-26T10:59:45.697Z,15.9
2018-09-26T11:00:36.014Z,15.8
2018-09-26T11:01:25.854Z,15.4
2018-09-26T11:02:16.637Z,15.3
2018-09-26T11:03:05.403Z,15.1
2018-09-26T11:03:55.456Z,15.3
2018-09-26T11:04:46.083Z,15.1
2018-09-26T11:05:36.160Z,15.2
2018-09-26T11:06:26.221Z,15.3
2018-09-26T11:07:15.704Z,15
2018-09-26T11:08:06.528Z,14.9
2018-09-26T11:08:56.086Z,14.8
2018-09-26T11:09:46.466Z,14.8
2018-09-26T11:10:36.549Z,14.8
2018-09-26T11:11:26.286Z,15.1
2018-09-26T11:12:16.618Z,15.3
2018-09-26T11:13:06.719Z,15
2018-09-26T11:13:55.628Z,14.9
2018-09-26T11:14:46.533Z,14.8
2018-09-26T11:15:36.658Z,14.6
2018-09-26T11:16:27.125Z,14.4
2018-09-26T11:17:17.008Z,14.4
2018-09-26T11:18:07.110Z,14.4
2018-09-26T11:18:57.185Z,14.4
2018-09-26T11:19:47.176Z,14.2
2018-09-26T11:20:37.479Z,14.3
2018-09-26T11:21:26.942Z,14.1
2018-09-26T11:22:17.810Z,14.2
2018-09-26T11:23:07.438Z,14.3
2018-09-26T11:23:57.468Z,14.3
2018-09-26T11:24:47.560Z,14.2
2018-09-26T11:25:37.600Z,14.1
2018-09-26T11:26:28.202Z,14.4
2018-09-26T11:27:17.764Z,14.9
2018-09-26T11:28:07.651Z,15.3
2018-09-26T11:28:57.583Z,15.8
2018-09-26T11:29:47.640Z,15.7
2018-09-26T11:30:37.703Z,15.3
2018-09-26T11:31:28.085Z,15.2
2018-09-26T11:32:18.599Z,14.9
2018-09-26T11:33:07.974Z,14.8
2018-09-26T11:33:58.258Z,14.5
2018-09-26T11:34:48.024Z,14.2
2018-09-26T11:35:38.100Z,14.1
2018-09-26T11:36:28.155Z,14.2
2018-09-26T11:37:18.172Z,14.8
2018-09-26T11:38:08.866Z,15
2018-09-26T11:38:58.602Z,14.8
2018-09-26T11:39:48.659Z,14.8
2018-09-26T11:40:38.712Z,14.8
2018-09-26T11:41:28.507Z,14.3
2018-09-26T11:42:18.610Z,14.2
2018-09-26T11:43:08.646Z,13.9
2018-09-26T11:43:58.761Z,13.9
2018-09-26T11:44:49.911Z,13.8
2018-09-26T11:45:39.088Z,13.8
2018-09-26T11:46:29.392Z,14
2018-09-26T11:47:18.365Z,14.1
2018-09-26T11:48:08.462Z,14.3
2018-09-26T11:48:59.309Z,14
2018-09-26T11:49:49.134Z,13.8
2018-09-26T11:50:39.018Z,13.7
2018-09-26T11:51:28.965Z,13.8
2018-09-26T11:52:19.181Z,13.8
2018-09-26T11:53:09.876Z,13.5
2018-09-26T11:53:59.681Z,13.5
2018-09-26T11:54:49.489Z,13.4
2018-09-26T11:55:39.377Z,13.3
2018-09-26T11:56:30.150Z,13.3
2018-09-26T11:57:19.170Z,13.4
2018-09-26T11:58:09.908Z,13.4
2018-09-26T11:58:59.835Z,13.8
2018-09-26T11:59:50.094Z,14
2018-09-26T12:00:39.891Z,14.2
2018-09-26T12:01:30.291Z,14.6
2018-09-26T12:02:20.336Z,14.9
2018-09-26T12:03:10.091Z,15.2
2018-09-26T12:04:00.019Z,15.6
2018-09-26T12:04:49.914Z,15.6
2018-09-26T12:05:39.825Z,15.9
2018-09-26T12:06:29.781Z,15.6
2018-09-26T12:07:20.913Z,14.9
2018-09-26T12:08:10.700Z,14.6
2018-09-26T12:09:01.088Z,14.4
2018-09-26T12:09:50.571Z,14.1
2018-09-26T12:10:40.923Z,14.1
2018-09-26T12:11:30.995Z,14
2018-09-26T12:12:21.674Z,14.1